LSQ weather

María Dolores Airport
Los Angeles, Bío-Bío Region, Chile

Public forecast

Using degrees Celsius for public forecast. Weather courtesy of forecast.io.

METAR (pilot weather report)

Report is more than 6 hours old.

Retrieved 2019/04/17 22:00 UTC (12 hours ago):

SCGE 172200Z 00000KT CAVOK 18/13 Q1013

TAF (pilot weather forecast)

Closest forecast is Carriel Sur Airport, 48.6 nm (90.0 km) NW. Retrieved 2019/04/18 06:00 UTC (4 hours ago):

TAF SCIE 180400Z 1806/1906 23010KT 7000 NSC TX17/1818Z TN11/1811Z TEMPO 1808/1814 3000 BR SCT005 BKN010 BECMG 1816/1818 23010KT CAVOK BECMG 1820/1822 SCT030 BKN160 BECMG 1902/1904 23004KT